Time;durP1;ratioP1;P1;durP2;ratioP2;P2;SDS_P1;SDS_P2;PMS_P1;PMS_P2;Temp;Humidity;BMP_temperature;BMP_pressure;BME280_temperature;BME280_humidity;BME280_pressure;Samples;Min_cycle;Max_cycle;Signal;HPM_P1;HPM_P2
2022/08/17 00:01:28;;;;;;;;;;;19.30;99.90;;;;;;4148758;28;19928;-62
2022/08/17 00:03:31;;;;;;;;;;;19.20;99.90;;;;;;4148566;28;20035;-62
2022/08/17 00:05:36;;;;;;;;;;;19.30;99.90;;;;;;4148706;28;19925;-61
2022/08/17 00:07:38;;;;;;;;;;;19.20;99.90;;;;;;4148526;28;20464;-61
2022/08/17 00:09:40;;;;;;;;;;;19.30;99.90;;;;;;4148703;28;20384;-60
2022/08/17 00:11:43;;;;;;;;;;;19.30;99.90;;;;;;4148492;28;19925;-59
2022/08/17 00:14:13;;;;;;;;;;;19.30;99.90;;;;;;4148621;28;19950;-62
2022/08/17 00:16:17;;;;;;;;;;;19.30;99.90;;;;;;4148279;28;20286;-62
2022/08/17 00:18:19;;;;;;;;;;;19.40;99.90;;;;;;4148456;28;19933;-61
2022/08/17 00:20:41;;;;;;;;;;;19.50;99.90;;;;;;4148596;28;20484;-61
2022/08/17 00:22:43;;;;;;;;;;;19.40;99.90;;;;;;4148175;28;20390;-61
2022/08/17 00:24:45;;;;;;;;;;;19.40;99.90;;;;;;4148789;28;19944;-62
2022/08/17 00:26:47;;;;;;;;;;;19.30;99.90;;;;;;4148414;28;20003;-62
2022/08/17 00:28:49;;;;;;;;;;;19.40;99.90;;;;;;4154917;28;19960;-61
2022/08/17 00:30:51;;;;;;;;;;;19.40;99.90;;;;;;4164776;28;19925;-62
2022/08/17 00:32:54;;;;;;;;;;;19.40;99.90;;;;;;4152853;28;20308;-62
2022/08/17 00:35:13;;;;;;;;;;;19.20;99.90;;;;;;4148134;28;19930;-62
2022/08/17 00:37:15;;;;;;;;;;;19.10;99.90;;;;;;4162517;28;19921;-62
2022/08/17 00:39:17;;;;;;;;;;;18.90;99.90;;;;;;4164807;28;19975;-62
2022/08/17 00:41:22;;;;;;;;;;;18.90;99.90;;;;;;4162025;28;19983;-62
2022/08/17 00:43:27;;;;;;;;;;;18.80;99.90;;;;;;4148123;28;20408;-62
2022/08/17 00:45:29;;;;;;;;;;;18.60;99.90;;;;;;4147785;28;20304;-62
2022/08/17 00:47:31;;;;;;;;;;;18.70;99.90;;;;;;4147946;28;19929;-62
2022/08/17 00:49:33;;;;;;;;;;;18.80;99.90;;;;;;4148070;28;19929;-61
2022/08/17 00:51:46;;;;;;;;;;;18.90;99.90;;;;;;4155868;28;20258;-61
2022/08/17 00:54:01;;;;;;;;;;;18.80;99.90;;;;;;4164139;28;19997;-62
2022/08/17 00:56:04;;;;;;;;;;;18.60;99.90;;;;;;4148066;28;20008;-60
2022/08/17 00:58:06;;;;;;;;;;;18.70;99.90;;;;;;4147835;28;19922;-62
2022/08/17 01:00:11;;;;;;;;;;;18.80;99.90;;;;;;4147918;28;20392;-61
2022/08/17 01:02:14;;;;;;;;;;;18.80;99.90;;;;;;4147701;28;19960;-61
2022/08/17 01:04:18;;;;;;;;;;;18.70;99.90;;;;;;4147807;28;20016;-61
2022/08/17 01:06:21;;;;;;;;;;;18.60;99.90;;;;;;4147945;28;19932;-61
2022/08/17 01:08:25;;;;;;;;;;;18.40;99.90;;;;;;4147602;28;19925;-62
2022/08/17 01:10:33;;;;;;;;;;;18.40;99.90;;;;;;4147898;28;19922;-62
2022/08/17 01:12:55;;;;;;;;;;;18.40;99.90;;;;;;4153058;28;19928;-62
2022/08/17 01:14:57;;;;;;;;;;;18.40;99.90;;;;;;4147665;28;19941;-62
2022/08/17 01:16:59;;;;;;;;;;;18.30;99.90;;;;;;4147471;28;19932;-62
2022/08/17 01:19:10;;;;;;;;;;;18.20;99.90;;;;;;4147573;28;20306;-62
2022/08/17 01:21:21;;;;;;;;;;;18.20;99.90;;;;;;4147751;28;19926;-61
2022/08/17 01:23:24;;;;;;;;;;;18.30;99.90;;;;;;4147423;28;19929;-61
2022/08/17 01:25:28;;;;;;;;;;;18.40;99.90;;;;;;4157676;28;19921;-61
2022/08/17 01:27:30;;;;;;;;;;;18.40;99.90;;;;;;4163723;28;19963;-61
2022/08/17 01:29:33;;;;;;;;;;;18.40;99.90;;;;;;4158318;28;19929;-61
2022/08/17 01:31:37;;;;;;;;;;;18.50;99.90;;;;;;4147529;28;19972;-61
2022/08/17 01:33:39;;;;;;;;;;;18.60;99.90;;;;;;4147199;28;19944;-61
2022/08/17 01:35:42;;;;;;;;;;;18.40;99.90;;;;;;4148973;28;20377;-61
2022/08/17 01:37:44;;;;;;;;;;;18.50;99.90;;;;;;4163684;28;19971;-61
2022/08/17 01:39:49;;;;;;;;;;;18.50;99.90;;;;;;4163569;28;19921;-61
2022/08/17 01:41:52;;;;;;;;;;;18.40;99.90;;;;;;4162131;28;19987;-62
2022/08/17 01:43:56;;;;;;;;;;;18.40;99.90;;;;;;4146862;28;20413;-61
2022/08/17 01:45:59;;;;;;;;;;;18.20;99.90;;;;;;4147340;28;19925;-62
2022/08/17 01:48:03;;;;;;;;;;;18.10;99.90;;;;;;4146714;28;20283;-61
2022/08/17 01:50:08;;;;;;;;;;;18.00;99.90;;;;;;4147108;28;19932;-62
2022/08/17 01:52:11;;;;;;;;;;;17.80;99.90;;;;;;4147139;28;19925;-61
2022/08/17 01:54:15;;;;;;;;;;;17.80;99.90;;;;;;4146985;28;19925;-61
2022/08/17 01:56:20;;;;;;;;;;;17.80;99.90;;;;;;4147078;28;20364;-62
2022/08/17 01:58:22;;;;;;;;;;;17.70;99.90;;;;;;4146976;28;19944;-61
2022/08/17 02:00:25;;;;;;;;;;;17.70;99.90;;;;;;4146918;28;19921;-61
2022/08/17 02:02:27;;;;;;;;;;;17.80;99.90;;;;;;4146809;28;20214;-61
2022/08/17 02:04:32;;;;;;;;;;;17.90;99.90;;;;;;4146753;28;19932;-62
2022/08/17 02:06:35;;;;;;;;;;;18.00;99.90;;;;;;4146875;28;19925;-61
2022/08/17 02:08:46;;;;;;;;;;;18.00;99.90;;;;;;4146186;28;19921;-61
2022/08/17 02:11:05;;;;;;;;;;;18.00;99.90;;;;;;4146714;28;20028;-61
2022/08/17 02:13:12;;;;;;;;;;;18.00;99.90;;;;;;4146792;28;19925;-61
2022/08/17 02:15:14;;;;;;;;;;;18.00;99.90;;;;;;4146303;28;20452;-61
2022/08/17 02:17:16;;;;;;;;;;;18.00;99.90;;;;;;4146685;28;19975;-61
2022/08/17 02:19:18;;;;;;;;;;;18.00;99.90;;;;;;4146797;28;19925;-61
2022/08/17 02:21:20;;;;;;;;;;;17.90;99.90;;;;;;4146947;28;20403;-61
2022/08/17 02:23:23;;;;;;;;;;;18.00;99.90;;;;;;4161583;28;20323;-61
2022/08/17 02:25:25;;;;;;;;;;;18.00;99.90;;;;;;4163049;28;19979;-61
2022/08/17 02:27:27;;;;;;;;;;;18.00;99.90;;;;;;4153163;28;19925;-61
2022/08/17 02:29:29;;;;;;;;;;;17.90;99.90;;;;;;4146461;28;19921;-60
2022/08/17 02:31:31;;;;;;;;;;;17.90;99.90;;;;;;4146206;28;19929;-61
2022/08/17 02:33:34;;;;;;;;;;;17.80;99.90;;;;;;4131370;28;20615;-61
2022/08/17 02:35:42;;;;;;;;;;;17.90;99.90;;;;;;4162209;28;19925;-60
2022/08/17 02:37:44;;;;;;;;;;;17.80;99.90;;;;;;4147415;28;19925;-61
2022/08/17 02:39:46;;;;;;;;;;;17.70;99.90;;;;;;4146133;28;19921;-61
2022/08/17 02:41:48;;;;;;;;;;;17.60;99.90;;;;;;4146448;28;19925;-61
2022/08/17 02:43:52;;;;;;;;;;;17.50;99.90;;;;;;4146564;28;19921;-61
2022/08/17 02:45:54;;;;;;;;;;;17.40;99.90;;;;;;4146251;28;19929;-61
2022/08/17 02:47:56;;;;;;;;;;;17.40;99.90;;;;;;4146066;28;19921;-61
2022/08/17 02:49:58;;;;;;;;;;;17.30;99.90;;;;;;4145985;28;19931;-61
2022/08/17 02:52:01;;;;;;;;;;;17.30;99.90;;;;;;4146246;28;20300;-61
2022/08/17 02:54:03;;;;;;;;;;;17.20;99.90;;;;;;4146281;28;20424;-60
2022/08/17 02:56:25;;;;;;;;;;;17.20;99.90;;;;;;4128431;28;20342;-61
2022/08/17 02:58:27;;;;;;;;;;;17.20;99.90;;;;;;4146246;28;19928;-61
2022/08/17 03:00:34;;;;;;;;;;;17.20;99.90;;;;;;4145954;28;19936;-61
2022/08/17 03:02:37;;;;;;;;;;;17.20;99.90;;;;;;4146212;28;19925;-61
2022/08/17 03:04:39;;;;;;;;;;;17.20;99.90;;;;;;4146002;28;20375;-61
2022/08/17 03:06:41;;;;;;;;;;;17.20;99.90;;;;;;4146013;28;19921;-61
2022/08/17 03:08:43;;;;;;;;;;;17.20;99.90;;;;;;4145935;28;20378;-61
2022/08/17 03:10:45;;;;;;;;;;;17.20;99.90;;;;;;4146229;28;19925;-61
2022/08/17 03:12:47;;;;;;;;;;;17.30;99.90;;;;;;4145813;28;19925;-61
2022/08/17 03:14:49;;;;;;;;;;;17.30;99.90;;;;;;4145878;28;19999;-61
2022/08/17 03:16:51;;;;;;;;;;;17.30;99.90;;;;;;4146982;28;19992;-61
2022/08/17 03:18:53;;;;;;;;;;;17.40;99.90;;;;;;4162547;28;20369;-60
2022/08/17 03:20:59;;;;;;;;;;;17.30;99.90;;;;;;4141042;28;19925;-61
2022/08/17 03:23:01;;;;;;;;;;;17.40;99.90;;;;;;4145796;28;20601;-61
2022/08/17 03:25:04;;;;;;;;;;;17.40;99.90;;;;;;4145849;28;19964;-59
2022/08/17 03:27:06;;;;;;;;;;;17.50;99.90;;;;;;4145809;28;20020;-61
2022/08/17 03:29:08;;;;;;;;;;;17.50;99.90;;;;;;4146023;28;19960;-61
2022/08/17 03:31:10;;;;;;;;;;;17.50;99.90;;;;;;4145325;28;19972;-61
2022/08/17 03:33:13;;;;;;;;;;;17.50;99.90;;;;;;4128250;28;20032;-61
2022/08/17 03:35:16;;;;;;;;;;;17.50;99.90;;;;;;4145382;28;19971;-61
2022/08/17 03:37:18;;;;;;;;;;;17.50;99.90;;;;;;4160497;28;19925;-61
2022/08/17 03:39:20;;;;;;;;;;;17.50;99.90;;;;;;4162067;28;19956;-61
2022/08/17 03:41:22;;;;;;;;;;;17.50;99.90;;;;;;4148227;28;19984;-61
2022/08/17 03:43:25;;;;;;;;;;;17.50;99.90;;;;;;4145654;28;19921;-61
2022/08/17 03:57:13;;;;;;;;;;;17.00;99.90;;;;;;4145523;28;19925;-61
2022/08/17 03:59:20;;;;;;;;;;;17.10;99.90;;;;;;4145498;28;19932;-60
2022/08/17 04:01:23;;;;;;;;;;;17.10;99.90;;;;;;4145665;28;19933;-61
2022/08/17 04:03:25;;;;;;;;;;;17.10;99.90;;;;;;4145686;28;20542;-61
2022/08/17 04:05:27;;;;;;;;;;;17.00;99.90;;;;;;4145674;28;19922;-61
2022/08/17 04:07:29;;;;;;;;;;;17.20;99.90;;;;;;4128073;28;19929;-61
2022/08/17 04:09:31;;;;;;;;;;;17.10;99.90;;;;;;4145199;28;19925;-61
2022/08/17 04:11:34;;;;;;;;;;;17.00;99.90;;;;;;4149981;28;19986;-60
2022/08/17 04:13:36;;;;;;;;;;;17.10;99.90;;;;;;4159675;28;20271;-60
2022/08/17 04:15:38;;;;;;;;;;;17.10;99.90;;;;;;4160121;28;19975;-61
2022/08/17 04:17:40;;;;;;;;;;;17.10;99.90;;;;;;4160122;28;19936;-60
2022/08/17 04:19:42;;;;;;;;;;;17.00;99.90;;;;;;4145785;28;20032;-60
2022/08/17 04:21:44;;;;;;;;;;;17.00;99.90;;;;;;4143918;28;19976;-60
2022/08/17 04:23:46;;;;;;;;;;;17.00;99.90;;;;;;4144176;28;19931;-60
2022/08/17 04:25:49;;;;;;;;;;;17.10;99.90;;;;;;4138377;28;19929;-61
2022/08/17 04:27:51;;;;;;;;;;;17.10;99.90;;;;;;4157001;28;19925;-61
2022/08/17 04:29:53;;;;;;;;;;;17.00;99.90;;;;;;4144950;28;20012;-61
2022/08/17 04:31:57;;;;;;;;;;;17.00;99.90;;;;;;4146104;28;20332;-60
2022/08/17 04:33:58;;;;;;;;;;;17.00;99.90;;;;;;4148298;28;19928;-61
2022/08/17 04:36:01;;;;;;;;;;;17.00;99.90;;;;;;4152635;28;20347;-60
2022/08/17 04:38:04;;;;;;;;;;;17.00;99.90;;;;;;4164494;28;19932;-60
2022/08/17 04:42:27;;;;;;;;;;;17.00;99.90;;;;;;4148174;28;19921;-60
2022/08/17 04:44:28;;;;;;;;;;;17.00;99.90;;;;;;4139136;28;19931;-60
2022/08/17 04:46:38;;;;;;;;;;;17.00;99.90;;;;;;4164457;28;19921;-60
2022/08/17 04:48:41;;;;;;;;;;;16.90;99.90;;;;;;4163340;28;19921;-60
2022/08/17 04:50:45;;;;;;;;;;;17.00;99.90;;;;;;4146213;28;20019;-60
2022/08/17 04:52:47;;;;;;;;;;;17.00;99.90;;;;;;4163144;28;19982;-61
2022/08/17 04:54:49;;;;;;;;;;;17.00;99.90;;;;;;4149432;28;19921;-60
2022/08/17 04:56:51;;;;;;;;;;;17.00;99.90;;;;;;4147566;28;20012;-60
2022/08/17 04:58:54;;;;;;;;;;;17.00;99.90;;;;;;4148154;28;19936;-60
2022/08/17 05:00:56;;;;;;;;;;;17.00;99.90;;;;;;4158266;28;19925;-60
2022/08/17 05:03:00;;;;;;;;;;;17.10;99.90;;;;;;4156405;28;19926;-60
2022/08/17 05:05:02;;;;;;;;;;;17.00;99.90;;;;;;4147937;28;20420;-60
2022/08/17 05:07:04;;;;;;;;;;;17.00;99.90;;;;;;4140286;28;19928;-60
2022/08/17 05:09:06;;;;;;;;;;;16.90;99.90;;;;;;4163082;28;20389;-60
2022/08/17 05:11:08;;;;;;;;;;;17.00;99.90;;;;;;4163910;28;19943;-59
2022/08/17 05:13:12;;;;;;;;;;;17.10;99.90;;;;;;4155234;28;20324;-60
2022/08/17 05:15:15;;;;;;;;;;;17.00;99.90;;;;;;4147635;28;19925;-60
2022/08/17 05:17:16;;;;;;;;;;;17.00;99.90;;;;;;4139255;28;19925;-60
2022/08/17 05:19:18;;;;;;;;;;;17.00;99.90;;;;;;4147438;28;19925;-61
2022/08/17 05:21:21;;;;;;;;;;;17.00;99.90;;;;;;4147354;28;19940;-58
2022/08/17 05:23:24;;;;;;;;;;;17.00;99.90;;;;;;4146936;28;20417;-60
2022/08/17 05:25:30;;;;;;;;;;;16.90;99.90;;;;;;4129607;28;19975;-60
2022/08/17 05:27:35;;;;;;;;;;;16.80;99.90;;;;;;4147447;28;19922;-60
2022/08/17 05:29:37;;;;;;;;;;;16.70;99.90;;;;;;4130421;28;20428;-60
2022/08/17 05:31:39;;;;;;;;;;;16.70;99.90;;;;;;4147378;28;19956;-60
2022/08/17 05:33:45;;;;;;;;;;;16.80;99.90;;;;;;4162442;28;19948;-60
2022/08/17 05:35:48;;;;;;;;;;;16.80;99.90;;;;;;4149413;28;19928;-60
2022/08/17 05:37:50;;;;;;;;;;;16.90;99.90;;;;;;4163638;28;19921;-60
2022/08/17 05:39:52;;;;;;;;;;;17.10;99.90;;;;;;4163520;28;20381;-60
2022/08/17 05:41:54;;;;;;;;;;;17.20;99.90;;;;;;4163647;28;19925;-60
2022/08/17 05:43:56;;;;;;;;;;;17.20;99.90;;;;;;4179105;28;19931;-60
2022/08/17 05:46:17;;;;;;;;;;;17.40;99.90;;;;;;4180035;28;19955;-60
2022/08/17 05:48:19;;;;;;;;;;;17.40;99.90;;;;;;4180066;28;19928;-60
2022/08/17 05:50:24;;;;;;;;;;;17.40;99.90;;;;;;4164640;28;20404;-60
2022/08/17 05:52:35;;;;;;;;;;;17.30;99.90;;;;;;4147396;28;19932;-61
2022/08/17 05:54:46;;;;;;;;;;;17.40;99.90;;;;;;4147175;28;19983;-60
2022/08/17 05:57:00;;;;;;;;;;;17.70;99.90;;;;;;4147035;28;19925;-56
2022/08/17 05:59:02;;;;;;;;;;;17.70;99.90;;;;;;4147232;28;19925;-60
2022/08/17 06:01:26;;;;;;;;;;;17.70;99.90;;;;;;4146547;28;20010;-60
2022/08/17 06:03:46;;;;;;;;;;;17.70;99.90;;;;;;4146765;28;19931;-61
2022/08/17 06:06:06;;;;;;;;;;;17.90;99.90;;;;;;4146769;28;20308;-61
2022/08/17 06:08:11;;;;;;;;;;;18.10;99.90;;;;;;4146670;28;19928;-60
2022/08/17 06:10:17;;;;;;;;;;;18.10;99.90;;;;;;4129253;28;19961;-61
2022/08/17 06:12:37;;;;;;;;;;;18.10;99.90;;;;;;4146696;28;19929;-61
2022/08/17 06:14:57;;;;;;;;;;;18.20;99.90;;;;;;4147021;28;19921;-61
2022/08/17 06:17:00;;;;;;;;;;;18.40;99.90;;;;;;4146370;28;19929;-60
2022/08/17 06:19:10;;;;;;;;;;;18.50;99.90;;;;;;4146463;28;19925;-61
2022/08/17 06:21:15;;;;;;;;;;;18.60;99.90;;;;;;4129268;28;19957;-61
2022/08/17 06:23:35;;;;;;;;;;;18.60;99.90;;;;;;4146416;28;19940;-61
2022/08/17 06:25:41;;;;;;;;;;;19.00;99.90;;;;;;4146200;28;19961;-61
2022/08/17 06:27:50;;;;;;;;;;;19.10;99.90;;;;;;4164711;28;19921;-61
2022/08/17 06:29:57;;;;;;;;;;;19.10;99.90;;;;;;4175138;28;19931;-60
2022/08/17 06:32:01;;;;;;;;;;;19.20;99.90;;;;;;4173076;28;20372;-61
2022/08/17 06:34:05;;;;;;;;;;;19.40;99.90;;;;;;4145191;28;19933;-61
2022/08/17 06:36:29;;;;;;;;;;;19.40;99.90;;;;;;4148656;28;20016;-61
2022/08/17 06:38:37;;;;;;;;;;;19.40;99.90;;;;;;4157088;28;19922;-61
2022/08/17 06:40:42;;;;;;;;;;;19.40;99.90;;;;;;4162501;28;19928;-61
2022/08/17 06:43:02;;;;;;;;;;;19.40;99.90;;;;;;4147166;28;19929;-57
2022/08/17 06:45:16;;;;;;;;;;;19.60;99.90;;;;;;4145918;28;19972;-61
2022/08/17 06:47:18;;;;;;;;;;;19.90;99.90;;;;;;4146171;28;19973;-61
2022/08/17 06:49:38;;;;;;;;;;;20.10;99.90;;;;;;4146130;28;19928;-60
2022/08/17 06:52:05;;;;;;;;;;;20.00;99.90;;;;;;4146182;28;20389;-61
2022/08/17 06:54:10;;;;;;;;;;;20.10;99.90;;;;;;4145657;28;19925;-62
2022/08/17 06:56:17;;;;;;;;;;;20.20;99.90;;;;;;4128548;28;20135;-61
2022/08/17 06:58:21;;;;;;;;;;;20.30;99.90;;;;;;4145313;28;19925;-60
2022/08/17 07:00:26;;;;;;;;;;;20.40;99.90;;;;;;4146031;28;20450;-62
2022/08/17 07:02:48;;;;;;;;;;;20.70;99.90;;;;;;4146146;28;19921;-61
2022/08/17 07:04:52;;;;;;;;;;;21.00;99.90;;;;;;4128384;28;19964;-61
2022/08/17 07:09:34;;;;;;;;;;;21.10;99.90;;;;;;4156239;28;19927;-61
2022/08/17 07:11:36;;;;;;;;;;;21.10;99.90;;;;;;4145777;28;19925;-61
2022/08/17 07:13:47;;;;;;;;;;;21.00;99.90;;;;;;4145412;28;20020;-58
2022/08/17 07:15:52;;;;;;;;;;;21.10;99.90;;;;;;4145926;28;20347;-62
2022/08/17 07:17:59;;;;;;;;;;;21.60;99.90;;;;;;4142110;28;19957;-62
2022/08/17 07:20:06;;;;;;;;;;;21.60;99.90;;;;;;4145626;28;19925;-62
2022/08/17 07:22:18;;;;;;;;;;;21.60;99.90;;;;;;4145812;28;19956;-62
2022/08/17 07:24:28;;;;;;;;;;;21.60;99.90;;;;;;4145736;28;20047;-62
2022/08/17 07:26:31;;;;;;;;;;;21.70;99.90;;;;;;4145799;28;20278;-62
2022/08/17 07:28:34;;;;;;;;;;;21.80;99.90;;;;;;4145801;28;19957;-62
2022/08/17 07:30:37;;;;;;;;;;;22.00;99.90;;;;;;4145852;28;19926;-62
2022/08/17 07:32:49;;;;;;;;;;;22.00;99.90;;;;;;4146111;28;19960;-61
2022/08/17 07:34:58;;;;;;;;;;;22.10;99.90;;;;;;4145898;28;19922;-62
2022/08/17 07:37:04;;;;;;;;;;;22.20;99.90;;;;;;4158641;28;19921;-61
2022/08/17 07:39:05;;;;;;;;;;;22.40;99.90;;;;;;4161674;28;20008;-61
2022/08/17 07:41:09;;;;;;;;;;;22.50;99.90;;;;;;4162389;28;20023;-61
2022/08/17 07:43:19;;;;;;;;;;;22.70;99.90;;;;;;4148018;28;19921;-61
2022/08/17 07:50:23;;;;;;;;;;;23.30;99.90;;;;;;4139512;28;19926;-61
2022/08/17 07:52:28;;;;;;;;;;;23.40;99.90;;;;;;4123265;28;20412;-61
2022/08/17 07:54:50;;;;;;;;;;;23.50;99.90;;;;;;4140604;28;19929;-61
2022/08/17 07:56:52;;;;;;;;;;;23.50;99.90;;;;;;4129368;28;20421;-61
2022/08/17 07:59:15;;;;;;;;;;;23.70;99.90;;;;;;4141128;28;19949;-61
2022/08/17 08:01:17;;;;;;;;;;;23.60;99.90;;;;;;4139949;28;19921;-62
2022/08/17 08:03:19;;;;;;;;;;;23.90;99.90;;;;;;4142324;28;20308;-61
2022/08/17 08:05:25;;;;;;;;;;;23.90;99.90;;;;;;4145647;28;19931;-61
2022/08/17 08:07:48;;;;;;;;;;;24.20;99.90;;;;;;4141350;28;19921;-61
2022/08/17 08:10:09;;;;;;;;;;;24.40;99.90;;;;;;4132328;28;19976;-61
2022/08/17 08:12:23;;;;;;;;;;;24.50;99.90;;;;;;4132349;28;19922;-62
2022/08/17 08:14:32;;;;;;;;;;;24.70;99.90;;;;;;4131975;28;20414;-62
2022/08/17 08:16:35;;;;;;;;;;;25.10;99.90;;;;;;4114729;28;19926;-60
2022/08/17 08:18:43;;;;;;;;;;;25.20;99.90;;;;;;4132381;28;19921;-62
2022/08/17 08:21:17;;;;;;;;;;;25.30;99.90;;;;;;4132120;28;19953;-62
2022/08/17 08:23:24;;;;;;;;;;;25.20;99.90;;;;;;4132437;28;19933;-62
2022/08/17 08:25:44;;;;;;;;;;;25.30;99.90;;;;;;4114825;28;20036;-61
2022/08/17 08:27:51;;;;;;;;;;;25.60;99.90;;;;;;4132126;28;20021;-62
2022/08/17 08:30:01;;;;;;;;;;;25.60;99.90;;;;;;4132033;28;19976;-61
2022/08/17 08:32:32;;;;;;;;;;;25.60;99.90;;;;;;4132144;28;19932;-61
2022/08/17 08:34:44;;;;;;;;;;;25.50;99.90;;;;;;4082293;29;20090;-61
2022/08/17 08:37:41;;;;;;;;;;;25.70;99.90;;;;;;4081460;29;19982;-62
2022/08/17 08:39:57;;;;;;;;;;;25.80;99.90;;;;;;4050529;29;19924;-62
2022/08/17 08:42:08;;;;;;;;;;;26.20;99.90;;;;;;4050736;29;19934;-61
2022/08/17 08:44:20;;;;;;;;;;;26.10;99.90;;;;;;4053118;29;19923;-61
2022/08/17 08:46:41;;;;;;;;;;;26.30;99.90;;;;;;4074994;29;19957;-61
2022/08/17 08:48:43;;;;;;;;;;;26.40;99.90;;;;;;4081743;29;19975;-60
2022/08/17 08:50:59;;;;;;;;;;;26.40;99.90;;;;;;4093816;29;20410;-61
2022/08/17 08:53:34;;;;;;;;;;;26.60;99.90;;;;;;4086684;29;19934;-60
2022/08/17 08:55:41;;;;;;;;;;;26.60;99.90;;;;;;4066349;29;19958;-61
2022/08/17 08:57:52;;;;;;;;;;;26.60;99.90;;;;;;4097755;29;20330;-61
2022/08/17 09:00:11;;;;;;;;;;;26.80;99.90;;;;;;4082107;29;19962;-61
2022/08/17 09:02:16;;;;;;;;;;;26.90;99.90;;;;;;4089811;29;19929;-61
2022/08/17 09:04:34;;;;;;;;;;;27.10;99.90;;;;;;4088020;29;20023;-61
2022/08/17 09:06:59;;;;;;;;;;;27.10;99.90;;;;;;4076624;29;20005;-61
2022/08/17 09:09:16;;;;;;;;;;;27.20;99.90;;;;;;4081425;29;20008;-61
2022/08/17 09:11:21;;;;;;;;;;;27.20;99.90;;;;;;4105345;28;19922;-61
2022/08/17 09:13:26;;;;;;;;;;;27.40;99.90;;;;;;4138993;28;20054;-62
2022/08/17 09:15:32;;;;;;;;;;;27.70;99.90;;;;;;4142628;28;19925;-61
2022/08/17 09:17:38;;;;;;;;;;;28.10;99.90;;;;;;4140858;28;19934;-61
2022/08/17 09:19:46;;;;;;;;;;;28.20;99.90;;;;;;4136529;28;19922;-61
2022/08/17 09:21:59;;;;;;;;;;;28.20;99.90;;;;;;4164932;28;20373;-61
2022/08/17 09:24:11;;;;;;;;;;;28.20;99.90;;;;;;4153099;28;19926;-61
2022/08/17 09:26:36;;;;;;;;;;;28.30;99.90;;;;;;4143826;28;19921;-61
2022/08/17 09:28:41;;;;;;;;;;;28.40;99.90;;;;;;4151175;28;20020;-62
2022/08/17 09:30:44;;;;;;;;;;;29.00;99.90;;;;;;4140709;28;20374;-61
2022/08/17 09:32:50;;;;;;;;;;;29.40;99.90;;;;;;4131266;28;19925;-61
2022/08/17 09:34:55;;;;;;;;;;;29.60;99.90;;;;;;4126602;28;20401;-62
2022/08/17 09:37:01;;;;;;;;;;;29.60;99.90;;;;;;4143444;28;19921;-61
2022/08/17 09:39:09;;;;;;;;;;;29.20;99.90;;;;;;4161741;28;20495;-62
2022/08/17 09:41:25;;;;;;;;;;;29.70;99.90;;;;;;4147800;28;19926;-62
2022/08/17 09:43:35;;;;;;;;;;;29.70;99.90;;;;;;4150065;28;19952;-62
2022/08/17 09:45:49;;;;;;;;;;;29.90;99.90;;;;;;4147283;28;19925;-62
2022/08/17 09:47:51;;;;;;;;;;;30.20;99.90;;;;;;4134387;28;19922;-62
2022/08/17 09:49:55;;;;;;;;;;;30.20;99.90;;;;;;4135725;28;19972;-62
2022/08/17 09:52:01;;;;;;;;;;;30.10;99.90;;;;;;4134443;28;19976;-61
2022/08/17 09:54:03;;;;;;;;;;;30.00;99.90;;;;;;4143330;28;19952;-62
2022/08/17 09:56:29;;;;;;;;;;;30.20;99.90;;;;;;4138081;28;19929;-62
2022/08/17 09:58:31;;;;;;;;;;;30.30;99.90;;;;;;4132167;28;20008;-62
2022/08/17 10:00:35;;;;;;;;;;;30.60;99.90;;;;;;4142441;28;19926;-61
2022/08/17 10:02:50;;;;;;;;;;;30.60;99.90;;;;;;4138834;28;20025;-61
2022/08/17 10:05:07;;;;;;;;;;;30.50;99.90;;;;;;4131956;28;20362;-62
2022/08/17 10:07:09;;;;;;;;;;;30.50;99.90;;;;;;4146735;28;20392;-61
2022/08/17 10:09:50;;;;;;;;;;;30.90;99.90;;;;;;4141105;28;19928;-62
2022/08/17 10:14:38;;;;;;;;;;;31.10;99.90;;;;;;4078072;29;20017;-61
2022/08/17 10:16:50;;;;;;;;;;;30.80;99.90;;;;;;4077115;29;19948;-61
2022/08/17 10:18:54;;;;;;;;;;;30.90;99.90;;;;;;4083655;29;19922;-62
2022/08/17 10:28:07;;;;;;;;;;;30.20;99.90;;;;;;4085085;29;19938;-61
2022/08/17 10:30:15;;;;;;;;;;;30.90;99.90;;;;;;4069302;29;19973;-59
2022/08/17 10:32:22;;;;;;;;;;;30.80;99.90;;;;;;4074986;29;20552;-61
2022/08/17 10:34:36;;;;;;;;;;;30.80;99.90;;;;;;4079617;29;19929;-62
2022/08/17 10:36:46;;;;;;;;;;;30.90;99.90;;;;;;4078069;29;20029;-61
2022/08/17 10:39:07;;;;;;;;;;;30.70;99.90;;;;;;4080536;29;19930;-62
2022/08/17 10:41:32;;;;;;;;;;;31.10;99.80;;;;;;4080647;29;19935;-61
2022/08/17 10:43:51;;;;;;;;;;;30.80;98.00;;;;;;4142850;28;20404;-61
2022/08/17 10:46:13;;;;;;;;;;;30.70;99.20;;;;;;4145528;28;19925;-61
2022/08/17 10:48:35;;;;;;;;;;;30.80;99.00;;;;;;4150980;28;19983;-61
2022/08/17 10:50:56;;;;;;;;;;;30.80;97.00;;;;;;4153081;28;19924;-61
2022/08/17 10:52:58;;;;;;;;;;;31.10;98.30;;;;;;4167455;28;19928;-61
2022/08/17 10:55:00;;;;;;;;;;;31.50;98.50;;;;;;4144260;28;19985;-61
2022/08/17 10:57:21;;;;;;;;;;;31.60;97.30;;;;;;4162114;28;19924;-61
2022/08/17 10:59:35;;;;;;;;;;;31.40;98.20;;;;;;4160940;28;19925;-61
2022/08/17 11:01:56;;;;;;;;;;;31.10;96.90;;;;;;4146452;28;19936;-61
2022/08/17 11:04:20;;;;;;;;;;;31.00;97.30;;;;;;4161562;28;19924;-61
2022/08/17 11:06:22;;;;;;;;;;;31.00;97.30;;;;;;4172318;28;19968;-61
2022/08/17 11:08:42;;;;;;;;;;;31.30;96.00;;;;;;4162456;28;19921;-62
2022/08/17 11:11:02;;;;;;;;;;;31.50;95.30;;;;;;4145941;28;20024;-61
2022/08/17 11:13:10;;;;;;;;;;;30.90;94.60;;;;;;4145769;28;19921;-61
2022/08/17 11:15:18;;;;;;;;;;;31.00;94.70;;;;;;4145681;28;20424;-61
2022/08/17 11:17:26;;;;;;;;;;;31.10;95.00;;;;;;4145985;28;20278;-61
2022/08/17 11:19:44;;;;;;;;;;;31.40;94.30;;;;;;4145746;28;19953;-61
2022/08/17 11:21:55;;;;;;;;;;;31.40;94.00;;;;;;4145780;28;19931;-61
2022/08/17 11:24:04;;;;;;;;;;;31.60;94.20;;;;;;4148494;28;20013;-61
2022/08/17 11:26:27;;;;;;;;;;;31.50;94.50;;;;;;4162072;28;20406;-61
2022/08/17 11:28:33;;;;;;;;;;;31.60;94.70;;;;;;4157186;28;19921;-61
2022/08/17 11:30:45;;;;;;;;;;;31.50;94.60;;;;;;4176112;28;19943;-61
2022/08/17 11:32:49;;;;;;;;;;;32.00;94.60;;;;;;4164650;28;19929;-61
2022/08/17 11:35:12;;;;;;;;;;;32.00;94.20;;;;;;4161530;28;19952;-60
2022/08/17 11:37:23;;;;;;;;;;;31.80;94.60;;;;;;4161333;28;19925;-61
2022/08/17 11:39:25;;;;;;;;;;;31.70;93.40;;;;;;4142347;28;19949;-61
2022/08/17 11:41:47;;;;;;;;;;;31.80;94.00;;;;;;4156359;28;19925;-61
2022/08/17 11:43:57;;;;;;;;;;;31.90;93.10;;;;;;4148878;28;19925;-61
2022/08/17 11:46:11;;;;;;;;;;;32.00;93.20;;;;;;4154857;28;19925;-61
2022/08/17 11:53:36;;;;;;;;;;;32.40;94.20;;;;;;4152891;28;20421;-58
2022/08/17 11:55:38;;;;;;;;;;;32.40;93.80;;;;;;4156457;28;19971;-57
2022/08/17 11:57:52;;;;;;;;;;;32.60;92.40;;;;;;4160520;28;20015;-57
2022/08/17 11:59:57;;;;;;;;;;;32.40;90.60;;;;;;4164652;28;19971;-57
2022/08/17 12:02:00;;;;;;;;;;;32.30;91.40;;;;;;4149021;28;19929;-55
2022/08/17 12:04:23;;;;;;;;;;;31.90;90.90;;;;;;4148705;28;19969;-56
2022/08/17 12:06:44;;;;;;;;;;;32.00;91.60;;;;;;4149142;28;20046;-56
2022/08/17 12:09:12;;;;;;;;;;;32.00;90.60;;;;;;4148394;28;19957;-57
2022/08/17 12:11:22;;;;;;;;;;;31.80;90.80;;;;;;4145053;28;19921;-57
2022/08/17 12:13:50;;;;;;;;;;;31.90;90.20;;;;;;4148391;28;19921;-57
2022/08/17 12:15:53;;;;;;;;;;;32.00;90.90;;;;;;4115735;28;19968;-56
2022/08/17 12:17:55;;;;;;;;;;;32.00;90.50;;;;;;4148524;28;19959;-57
2022/08/17 12:20:27;;;;;;;;;;;32.10;91.40;;;;;;4148380;28;19925;-57
2022/08/17 12:22:40;;;;;;;;;;;32.70;91.80;;;;;;4084717;28;20398;-58
2022/08/17 12:24:47;;;;;;;;;;;32.50;90.30;;;;;;4098377;29;19926;-57
2022/08/17 12:26:50;;;;;;;;;;;32.40;90.20;;;;;;4097995;29;19926;-57
2022/08/17 12:29:15;;;;;;;;;;;32.20;90.70;;;;;;4098247;28;20298;-57
2022/08/17 12:31:24;;;;;;;;;;;32.50;90.60;;;;;;4098187;29;20378;-57
2022/08/17 12:33:27;;;;;;;;;;;33.30;91.70;;;;;;4097741;29;20067;-57
2022/08/17 12:35:33;;;;;;;;;;;33.40;88.90;;;;;;4097530;28;20322;-56
2022/08/17 12:37:44;;;;;;;;;;;33.40;89.30;;;;;;4097569;29;19958;-58
2022/08/17 12:39:54;;;;;;;;;;;33.60;90.50;;;;;;4100279;28;19923;-61
2022/08/17 12:41:57;;;;;;;;;;;33.90;88.80;;;;;;4097501;28;20370;-61
2022/08/17 12:44:03;;;;;;;;;;;34.30;88.90;;;;;;4096515;29;19929;-62
2022/08/17 12:46:05;;;;;;;;;;;34.40;87.70;;;;;;4096830;28;20186;-62
2022/08/17 12:48:21;;;;;;;;;;;34.70;89.40;;;;;;4102834;28;20433;-61
2022/08/17 12:50:23;;;;;;;;;;;34.80;87.10;;;;;;4113144;28;19922;-62
2022/08/17 12:52:31;;;;;;;;;;;34.60;88.30;;;;;;4099418;28;20009;-61
2022/08/17 12:54:36;;;;;;;;;;;33.70;87.70;;;;;;4099088;28;19989;-61
2022/08/17 12:56:39;;;;;;;;;;;33.30;89.70;;;;;;4109222;28;19936;-61
2022/08/17 12:58:47;;;;;;;;;;;33.90;90.30;;;;;;4113932;28;20324;-61
2022/08/17 13:00:55;;;;;;;;;;;34.00;87.40;;;;;;4155440;28;19924;-62